sensor_id;sensor_type;location;lat;lon;timestamp;temperature;humidity
20839;DHT22;10580;51.092;6.828;2023-09-19T00:00:22;15.70;1.00
20839;DHT22;10580;51.092;6.828;2023-09-19T00:02:55;15.70;99.90
20839;DHT22;10580;51.092;6.828;2023-09-19T00:05:28;15.70;99.90
20839;DHT22;10580;51.092;6.828;2023-09-19T00:07:57;15.70;99.90
20839;DHT22;10580;51.092;6.828;2023-09-19T00:10:27;15.60;99.90
20839;DHT22;10580;51.092;6.828;2023-09-19T00:12:56;15.60;99.90
20839;DHT22;10580;51.092;6.828;2023-09-19T00:15:24;15.60;60.60
20839;DHT22;10580;51.092;6.828;2023-09-19T00:17:51;15.60;99.90
20839;DHT22;10580;51.092;6.828;2023-09-19T00:20:18;15.60;99.90
20839;DHT22;10580;51.092;6.828;2023-09-19T00:22:44;15.60;12.30
20839;DHT22;10580;51.092;6.828;2023-09-19T00:25:10;15.60;99.90
20839;DHT22;10580;51.092;6.828;2023-09-19T00:27:38;15.50;1.00
20839;DHT22;10580;51.092;6.828;2023-09-19T00:30:09;15.50;99.90
20839;DHT22;10580;51.092;6.828;2023-09-19T00:32:40;15.50;99.90
20839;DHT22;10580;51.092;6.828;2023-09-19T00:35:06;15.50;58.80
20839;DHT22;10580;51.092;6.828;2023-09-19T00:37:34;15.50;99.90
20839;DHT22;10580;51.092;6.828;2023-09-19T00:39:59;15.50;99.90
20839;DHT22;10580;51.092;6.828;2023-09-19T00:42:25;15.50;99.90
20839;DHT22;10580;51.092;6.828;2023-09-19T00:44:51;15.50;99.90
20839;DHT22;10580;51.092;6.828;2023-09-19T00:47:18;15.60;5.30
20839;DHT22;10580;51.092;6.828;2023-09-19T00:49:45;15.60;1.00
20839;DHT22;10580;51.092;6.828;2023-09-19T00:52:18;15.60;1.00
20839;DHT22;10580;51.092;6.828;2023-09-19T00:54:48;15.60;1.00
20839;DHT22;10580;51.092;6.828;2023-09-19T00:57:14;15.60;1.00
20839;DHT22;10580;51.092;6.828;2023-09-19T00:59:44;15.60;1.00
20839;DHT22;10580;51.092;6.828;2023-09-19T01:02:10;15.60;1.00
20839;DHT22;10580;51.092;6.828;2023-09-19T01:04:40;15.60;99.90
20839;DHT22;10580;51.092;6.828;2023-09-19T01:07:07;15.70;1.00
20839;DHT22;10580;51.092;6.828;2023-09-19T01:09:34;15.70;1.00
20839;DHT22;10580;51.092;6.828;2023-09-19T01:12:02;15.70;1.00
20839;DHT22;10580;51.092;6.828;2023-09-19T01:14:42;15.70;1.00
20839;DHT22;10580;51.092;6.828;2023-09-19T01:17:29;15.70;1.00
20839;DHT22;10580;51.092;6.828;2023-09-19T01:23:11;15.70;99.90
20839;DHT22;10580;51.092;6.828;2023-09-19T01:28:43;15.70;1.00
20839;DHT22;10580;51.092;6.828;2023-09-19T01:31:13;15.70;1.00
20839;DHT22;10580;51.092;6.828;2023-09-19T01:34:02;15.70;1.00
20839;DHT22;10580;51.092;6.828;2023-09-19T01:36:36;15.70;1.00
20839;DHT22;10580;51.092;6.828;2023-09-19T01:39:08;15.70;1.00
20839;DHT22;10580;51.092;6.828;2023-09-19T01:45:03;15.70;1.00
20839;DHT22;10580;51.092;6.828;2023-09-19T01:47:35;15.70;1.00
20839;DHT22;10580;51.092;6.828;2023-09-19T01:50:22;15.70;1.00
20839;DHT22;10580;51.092;6.828;2023-09-19T01:53:43;15.70;1.00
20839;DHT22;10580;51.092;6.828;2023-09-19T01:55:46;15.70;99.90
20839;DHT22;10580;51.092;6.828;2023-09-19T02:00:48;15.70;1.00
20839;DHT22;10580;51.092;6.828;2023-09-19T02:03:17;15.70;99.90
20839;DHT22;10580;51.092;6.828;2023-09-19T02:05:51;15.70;99.90
20839;DHT22;10580;51.092;6.828;2023-09-19T02:08:20;15.70;1.00
20839;DHT22;10580;51.092;6.828;2023-09-19T02:10:46;15.70;1.00
20839;DHT22;10580;51.092;6.828;2023-09-19T02:13:16;15.70;33.30
20839;DHT22;10580;51.092;6.828;2023-09-19T02:15:42;15.70;99.90
20839;DHT22;10580;51.092;6.828;2023-09-19T02:18:09;15.60;25.30
20839;DHT22;10580;51.092;6.828;2023-09-19T02:20:35;15.60;99.90
20839;DHT22;10580;51.092;6.828;2023-09-19T02:23:00;15.60;1.00
20839;DHT22;10580;51.092;6.828;2023-09-19T02:25:27;15.60;99.90
20839;DHT22;10580;51.092;6.828;2023-09-19T02:27:53;15.60;99.70
20839;DHT22;10580;51.092;6.828;2023-09-19T02:30:19;15.50;99.90
20839;DHT22;10580;51.092;6.828;2023-09-19T02:32:48;15.50;99.90
20839;DHT22;10580;51.092;6.828;2023-09-19T02:35:15;15.50;1.00
20839;DHT22;10580;51.092;6.828;2023-09-19T02:37:41;15.40;1.00
20839;DHT22;10580;51.092;6.828;2023-09-19T02:40:07;15.40;1.00
20839;DHT22;10580;51.092;6.828;2023-09-19T02:42:44;15.40;1.00
20839;DHT22;10580;51.092;6.828;2023-09-19T02:45:12;15.40;1.00
20839;DHT22;10580;51.092;6.828;2023-09-19T02:47:40;15.30;1.00
20839;DHT22;10580;51.092;6.828;2023-09-19T02:50:06;15.30;1.00
20839;DHT22;10580;51.092;6.828;2023-09-19T02:52:31;15.30;1.00
20839;DHT22;10580;51.092;6.828;2023-09-19T02:54:57;15.30;1.00
20839;DHT22;10580;51.092;6.828;2023-09-19T02:57:23;15.30;1.00
20839;DHT22;10580;51.092;6.828;2023-09-19T02:59:49;15.20;1.00
20839;DHT22;10580;51.092;6.828;2023-09-19T03:02:15;15.20;99.90
20839;DHT22;10580;51.092;6.828;2023-09-19T03:04:41;15.20;1.00
20839;DHT22;10580;51.092;6.828;2023-09-19T03:07:07;15.20;1.00
20839;DHT22;10580;51.092;6.828;2023-09-19T03:09:32;15.10;99.90
20839;DHT22;10580;51.092;6.828;2023-09-19T03:11:58;15.10;1.00
20839;DHT22;10580;51.092;6.828;2023-09-19T03:14:24;15.10;99.90
20839;DHT22;10580;51.092;6.828;2023-09-19T03:16:50;15.10;99.90
20839;DHT22;10580;51.092;6.828;2023-09-19T03:19:17;15.10;99.90
20839;DHT22;10580;51.092;6.828;2023-09-19T03:21:43;15.00;99.90
20839;DHT22;10580;51.092;6.828;2023-09-19T03:24:09;15.00;99.90
20839;DHT22;10580;51.092;6.828;2023-09-19T03:26:35;15.00;99.90
20839;DHT22;10580;51.092;6.828;2023-09-19T03:29:03;14.90;99.90
20839;DHT22;10580;51.092;6.828;2023-09-19T03:31:31;14.90;99.90
20839;DHT22;10580;51.092;6.828;2023-09-19T03:33:57;14.90;1.00
20839;DHT22;10580;51.092;6.828;2023-09-19T03:36:23;14.90;1.00
20839;DHT22;10580;51.092;6.828;2023-09-19T03:38:48;14.80;1.00
20839;DHT22;10580;51.092;6.828;2023-09-19T03:41:14;14.80;40.80
20839;DHT22;10580;51.092;6.828;2023-09-19T03:43:42;14.80;98.30
20839;DHT22;10580;51.092;6.828;2023-09-19T03:46:08;14.70;99.90
20839;DHT22;10580;51.092;6.828;2023-09-19T03:48:33;14.70;1.00
20839;DHT22;10580;51.092;6.828;2023-09-19T03:50:59;14.70;99.90
20839;DHT22;10580;51.092;6.828;2023-09-19T03:53:25;14.70;99.90
20839;DHT22;10580;51.092;6.828;2023-09-19T03:55:50;14.60;1.00
20839;DHT22;10580;51.092;6.828;2023-09-19T03:58:16;14.70;1.00
20839;DHT22;10580;51.092;6.828;2023-09-19T04:00:41;14.70;99.90
20839;DHT22;10580;51.092;6.828;2023-09-19T04:03:07;14.60;1.00
20839;DHT22;10580;51.092;6.828;2023-09-19T04:05:33;14.60;99.90
20839;DHT22;10580;51.092;6.828;2023-09-19T04:07:59;14.50;1.00
20839;DHT22;10580;51.092;6.828;2023-09-19T04:10:24;14.50;1.00
20839;DHT22;10580;51.092;6.828;2023-09-19T04:12:51;14.40;99.90
20839;DHT22;10580;51.092;6.828;2023-09-19T04:15:18;14.50;1.00
20839;DHT22;10580;51.092;6.828;2023-09-19T04:17:44;14.50;1.00
20839;DHT22;10580;51.092;6.828;2023-09-19T04:20:09;14.50;1.00
20839;DHT22;10580;51.092;6.828;2023-09-19T04:22:37;14.50;99.90
20839;DHT22;10580;51.092;6.828;2023-09-19T04:25:04;14.40;99.90
20839;DHT22;10580;51.092;6.828;2023-09-19T04:27:32;14.50;1.00
20839;DHT22;10580;51.092;6.828;2023-09-19T04:29:57;14.50;99.90
20839;DHT22;10580;51.092;6.828;2023-09-19T04:32:27;14.50;1.00
20839;DHT22;10580;51.092;6.828;2023-09-19T04:34:53;14.50;1.00
20839;DHT22;10580;51.092;6.828;2023-09-19T04:37:19;14.50;1.00
20839;DHT22;10580;51.092;6.828;2023-09-19T04:39:44;14.50;99.90
20839;DHT22;10580;51.092;6.828;2023-09-19T04:42:13;14.50;99.90
20839;DHT22;10580;51.092;6.828;2023-09-19T04:44:40;14.50;1.00
20839;DHT22;10580;51.092;6.828;2023-09-19T04:47:05;14.50;22.40
20839;DHT22;10580;51.092;6.828;2023-09-19T04:49:31;14.50;99.90
20839;DHT22;10580;51.092;6.828;2023-09-19T04:51:57;14.40;3.00
20839;DHT22;10580;51.092;6.828;2023-09-19T04:54:22;14.40;1.00
20839;DHT22;10580;51.092;6.828;2023-09-19T04:56:48;14.40;99.90
20839;DHT22;10580;51.092;6.828;2023-09-19T04:59:14;14.30;99.90
20839;DHT22;10580;51.092;6.828;2023-09-19T05:01:40;14.30;99.90
20839;DHT22;10580;51.092;6.828;2023-09-19T05:04:06;14.30;1.00
20839;DHT22;10580;51.092;6.828;2023-09-19T05:06:31;14.30;1.00
20839;DHT22;10580;51.092;6.828;2023-09-19T05:08:58;14.30;99.90
20839;DHT22;10580;51.092;6.828;2023-09-19T05:11:25;14.30;1.00
20839;DHT22;10580;51.092;6.828;2023-09-19T05:13:51;14.30;1.00
20839;DHT22;10580;51.092;6.828;2023-09-19T05:16:18;14.30;99.90
20839;DHT22;10580;51.092;6.828;2023-09-19T05:18:43;14.30;99.90
20839;DHT22;10580;51.092;6.828;2023-09-19T05:21:09;14.30;51.60
20839;DHT22;10580;51.092;6.828;2023-09-19T05:23:34;14.30;1.00
20839;DHT22;10580;51.092;6.828;2023-09-19T05:26:00;14.30;99.90
20839;DHT22;10580;51.092;6.828;2023-09-19T05:28:26;14.30;99.90
20839;DHT22;10580;51.092;6.828;2023-09-19T05:30:52;14.30;1.00
20839;DHT22;10580;51.092;6.828;2023-09-19T05:33:18;14.40;1.00
20839;DHT22;10580;51.092;6.828;2023-09-19T05:35:44;14.40;99.90
20839;DHT22;10580;51.092;6.828;2023-09-19T05:38:12;14.40;99.90
20839;DHT22;10580;51.092;6.828;2023-09-19T05:40:39;14.50;99.90
20839;DHT22;10580;51.092;6.828;2023-09-19T05:43:08;14.50;99.90
20839;DHT22;10580;51.092;6.828;2023-09-19T05:45:34;14.60;99.90
20839;DHT22;10580;51.092;6.828;2023-09-19T05:48:14;14.60;1.00
20839;DHT22;10580;51.092;6.828;2023-09-19T05:50:41;14.70;99.80
20839;DHT22;10580;51.092;6.828;2023-09-19T05:53:06;14.70;99.90
20839;DHT22;10580;51.092;6.828;2023-09-19T05:55:32;14.70;99.90
20839;DHT22;10580;51.092;6.828;2023-09-19T05:57:58;14.80;99.90
20839;DHT22;10580;51.092;6.828;2023-09-19T06:00:25;14.80;1.00
20839;DHT22;10580;51.092;6.828;2023-09-19T06:02:57;14.80;99.90
20839;DHT22;10580;51.092;6.828;2023-09-19T06:05:24;14.90;1.00
20839;DHT22;10580;51.092;6.828;2023-09-19T06:07:52;14.90;1.00
20839;DHT22;10580;51.092;6.828;2023-09-19T06:10:18;14.90;1.00
20839;DHT22;10580;51.092;6.828;2023-09-19T06:12:46;15.00;1.00
20839;DHT22;10580;51.092;6.828;2023-09-19T06:15:15;15.10;1.00
20839;DHT22;10580;51.092;6.828;2023-09-19T06:17:48;15.10;99.90
20839;DHT22;10580;51.092;6.828;2023-09-19T06:20:14;15.00;99.90
20839;DHT22;10580;51.092;6.828;2023-09-19T06:22:41;15.10;99.90
20839;DHT22;10580;51.092;6.828;2023-09-19T06:25:08;15.20;99.90
20839;DHT22;10580;51.092;6.828;2023-09-19T06:27:40;15.20;99.90
20839;DHT22;10580;51.092;6.828;2023-09-19T06:30:10;15.20;99.90
20839;DHT22;10580;51.092;6.828;2023-09-19T06:32:42;15.20;99.90
20839;DHT22;10580;51.092;6.828;2023-09-19T06:35:13;15.30;99.90
20839;DHT22;10580;51.092;6.828;2023-09-19T06:37:39;15.30;99.90
20839;DHT22;10580;51.092;6.828;2023-09-19T06:40:11;15.40;99.90
20839;DHT22;10580;51.092;6.828;2023-09-19T06:43:06;15.40;99.90
20839;DHT22;10580;51.092;6.828;2023-09-19T06:45:32;15.40;99.90
20839;DHT22;10580;51.092;6.828;2023-09-19T06:47:58;15.40;99.90
20839;DHT22;10580;51.092;6.828;2023-09-19T06:50:25;15.40;99.70
20839;DHT22;10580;51.092;6.828;2023-09-19T06:52:53;15.40;54.30
20839;DHT22;10580;51.092;6.828;2023-09-19T06:55:21;15.50;99.90
20839;DHT22;10580;51.092;6.828;2023-09-19T06:57:49;15.60;2.10
20839;DHT22;10580;51.092;6.828;2023-09-19T07:00:15;15.80;89.60
20839;DHT22;10580;51.092;6.828;2023-09-19T07:03:01;15.80;1.00
20839;DHT22;10580;51.092;6.828;2023-09-19T07:05:29;15.80;1.00
20839;DHT22;10580;51.092;6.828;2023-09-19T07:07:57;15.90;1.00
20839;DHT22;10580;51.092;6.828;2023-09-19T07:10:27;15.90;1.00
20839;DHT22;10580;51.092;6.828;2023-09-19T07:12:57;16.00;1.00
20839;DHT22;10580;51.092;6.828;2023-09-19T07:15:24;16.10;1.00
20839;DHT22;10580;51.092;6.828;2023-09-19T07:17:51;16.30;1.00
20839;DHT22;10580;51.092;6.828;2023-09-19T07:20:17;16.50;1.00
20839;DHT22;10580;51.092;6.828;2023-09-19T07:22:43;16.50;1.00
20839;DHT22;10580;51.092;6.828;2023-09-19T07:25:08;16.50;1.00
20839;DHT22;10580;51.092;6.828;2023-09-19T07:27:34;16.60;1.00
20839;DHT22;10580;51.092;6.828;2023-09-19T07:29:59;16.50;1.00
20839;DHT22;10580;51.092;6.828;2023-09-19T07:32:25;16.50;1.00
20839;DHT22;10580;51.092;6.828;2023-09-19T07:34:50;16.50;1.00
20839;DHT22;10580;51.092;6.828;2023-09-19T07:37:16;16.70;1.00
20839;DHT22;10580;51.092;6.828;2023-09-19T07:39:42;16.90;1.00
20839;DHT22;10580;51.092;6.828;2023-09-19T07:42:10;17.00;1.00
20839;DHT22;10580;51.092;6.828;2023-09-19T07:44:37;17.00;1.00
20839;DHT22;10580;51.092;6.828;2023-09-19T07:47:02;17.20;1.00
20839;DHT22;10580;51.092;6.828;2023-09-19T07:49:28;17.20;1.00
20839;DHT22;10580;51.092;6.828;2023-09-19T07:51:54;17.30;1.00
20839;DHT22;10580;51.092;6.828;2023-09-19T07:54:20;17.20;99.90
20839;DHT22;10580;51.092;6.828;2023-09-19T07:56:46;17.30;99.90
20839;DHT22;10580;51.092;6.828;2023-09-19T07:59:12;17.40;99.90
20839;DHT22;10580;51.092;6.828;2023-09-19T08:01:39;17.60;99.90
20839;DHT22;10580;51.092;6.828;2023-09-19T08:04:07;17.80;99.90
20839;DHT22;10580;51.092;6.828;2023-09-19T08:06:32;18.00;99.90
20839;DHT22;10580;51.092;6.828;2023-09-19T08:08:58;18.40;99.90
20839;DHT22;10580;51.092;6.828;2023-09-19T08:11:26;18.90;99.90
20839;DHT22;10580;51.092;6.828;2023-09-19T08:13:56;18.60;99.90
20839;DHT22;10580;51.092;6.828;2023-09-19T08:16:21;18.20;99.90
20839;DHT22;10580;51.092;6.828;2023-09-19T08:18:48;18.30;99.90
20839;DHT22;10580;51.092;6.828;2023-09-19T08:21:17;18.00;99.90
20839;DHT22;10580;51.092;6.828;2023-09-19T08:23:43;18.40;99.90
20839;DHT22;10580;51.092;6.828;2023-09-19T08:26:08;18.30;99.90
20839;DHT22;10580;51.092;6.828;2023-09-19T08:28:34;18.90;99.90
20839;DHT22;10580;51.092;6.828;2023-09-19T08:31:04;19.30;99.90
20839;DHT22;10580;51.092;6.828;2023-09-19T08:33:35;19.40;99.90
20839;DHT22;10580;51.092;6.828;2023-09-19T08:36:04;19.40;99.90
20839;DHT22;10580;51.092;6.828;2023-09-19T08:38:35;19.70;99.90
20839;DHT22;10580;51.092;6.828;2023-09-19T08:41:04;20.10;99.90
20839;DHT22;10580;51.092;6.828;2023-09-19T08:43:30;20.50;99.90
20839;DHT22;10580;51.092;6.828;2023-09-19T08:46:19;20.50;99.90
20839;DHT22;10580;51.092;6.828;2023-09-19T08:49:05;20.60;99.90
20839;DHT22;10580;51.092;6.828;2023-09-19T08:51:41;20.20;99.90
20839;DHT22;10580;51.092;6.828;2023-09-19T08:54:14;20.60;99.90
20839;DHT22;10580;51.092;6.828;2023-09-19T08:56:41;20.60;99.90
20839;DHT22;10580;51.092;6.828;2023-09-19T08:59:09;20.50;99.90
20839;DHT22;10580;51.092;6.828;2023-09-19T09:01:38;20.60;99.90
20839;DHT22;10580;51.092;6.828;2023-09-19T09:04:08;20.70;99.90
20839;DHT22;10580;51.092;6.828;2023-09-19T09:06:34;20.30;99.90
20839;DHT22;10580;51.092;6.828;2023-09-19T11:04:30;19.80;51.50
20839;DHT22;10580;51.092;6.828;2023-09-19T11:07:15;19.80;37.20
20839;DHT22;10580;51.092;6.828;2023-09-19T11:09:47;19.90;49.80
20839;DHT22;10580;51.092;6.828;2023-09-19T11:15:01;19.80;32.90
20839;DHT22;10580;51.092;6.828;2023-09-19T11:17:36;19.80;29.80
20839;DHT22;10580;51.092;6.828;2023-09-19T11:30:36;20.20;23.40
20839;DHT22;10580;51.092;6.828;2023-09-19T11:36:16;20.50;34.30
20839;DHT22;10580;51.092;6.828;2023-09-19T11:46:34;22.10;18.40
20839;DHT22;10580;51.092;6.828;2023-09-19T11:49:07;22.40;12.20
20839;DHT22;10580;51.092;6.828;2023-09-19T11:51:42;22.20;1.00
20839;DHT22;10580;51.092;6.828;2023-09-19T11:54:12;22.40;1.00
20839;DHT22;10580;51.092;6.828;2023-09-19T11:56:44;22.40;1.00
20839;DHT22;10580;51.092;6.828;2023-09-19T11:59:11;22.20;1.00
20839;DHT22;10580;51.092;6.828;2023-09-19T12:01:38;21.60;1.00
20839;DHT22;10580;51.092;6.828;2023-09-19T12:04:11;21.90;1.00
20839;DHT22;10580;51.092;6.828;2023-09-19T12:06:37;21.80;1.00
20839;DHT22;10580;51.092;6.828;2023-09-19T12:09:04;21.90;1.00
20839;DHT22;10580;51.092;6.828;2023-09-19T12:11:41;21.70;1.00
20839;DHT22;10580;51.092;6.828;2023-09-19T12:14:09;21.80;1.00
20839;DHT22;10580;51.092;6.828;2023-09-19T12:16:35;21.70;1.00
20839;DHT22;10580;51.092;6.828;2023-09-19T12:19:18;21.70;1.00
20839;DHT22;10580;51.092;6.828;2023-09-19T12:21:58;21.80;1.00
20839;DHT22;10580;51.092;6.828;2023-09-19T12:24:26;22.00;1.00
20839;DHT22;10580;51.092;6.828;2023-09-19T12:27:00;22.00;1.00
20839;DHT22;10580;51.092;6.828;2023-09-19T12:29:27;22.00;1.00
20839;DHT22;10580;51.092;6.828;2023-09-19T12:31:57;22.30;1.00
20839;DHT22;10580;51.092;6.828;2023-09-19T12:34:27;22.30;1.00
20839;DHT22;10580;51.092;6.828;2023-09-19T12:37:15;22.10;1.00
20839;DHT22;10580;51.092;6.828;2023-09-19T12:39:51;22.10;1.00
20839;DHT22;10580;51.092;6.828;2023-09-19T12:42:22;22.00;1.00
20839;DHT22;10580;51.092;6.828;2023-09-19T12:44:50;22.00;1.00
20839;DHT22;10580;51.092;6.828;2023-09-19T12:47:23;22.10;1.00
20839;DHT22;10580;51.092;6.828;2023-09-19T12:52:46;22.50;1.00
20839;DHT22;10580;51.092;6.828;2023-09-19T12:55:30;22.60;1.00
20839;DHT22;10580;51.092;6.828;2023-09-19T12:58:14;22.50;1.00
20839;DHT22;10580;51.092;6.828;2023-09-19T13:00:45;22.40;1.00
20839;DHT22;10580;51.092;6.828;2023-09-19T13:03:18;22.50;1.00
20839;DHT22;10580;51.092;6.828;2023-09-19T13:05:57;22.80;1.00
20839;DHT22;10580;51.092;6.828;2023-09-19T13:08:25;22.80;1.00
20839;DHT22;10580;51.092;6.828;2023-09-19T13:11:13;23.10;1.00
20839;DHT22;10580;51.092;6.828;2023-09-19T13:16:16;23.30;1.00
20839;DHT22;10580;51.092;6.828;2023-09-19T13:18:55;22.80;1.00
20839;DHT22;10580;51.092;6.828;2023-09-19T13:21:31;23.00;1.00
20839;DHT22;10580;51.092;6.828;2023-09-19T13:24:26;22.90;1.00
20839;DHT22;10580;51.092;6.828;2023-09-19T13:26:53;22.70;1.00
20839;DHT22;10580;51.092;6.828;2023-09-19T13:29:19;22.90;1.00
20839;DHT22;10580;51.092;6.828;2023-09-19T13:31:48;23.00;1.00
20839;DHT22;10580;51.092;6.828;2023-09-19T13:34:14;23.00;1.00
20839;DHT22;10580;51.092;6.828;2023-09-19T13:37:02;22.30;1.00
20839;DHT22;10580;51.092;6.828;2023-09-19T13:39:29;22.20;1.00
20839;DHT22;10580;51.092;6.828;2023-09-19T13:41:55;22.10;1.00
20839;DHT22;10580;51.092;6.828;2023-09-19T13:44:21;22.40;1.00
20839;DHT22;10580;51.092;6.828;2023-09-19T13:46:46;22.30;1.00
20839;DHT22;10580;51.092;6.828;2023-09-19T13:49:12;21.90;1.00
20839;DHT22;10580;51.092;6.828;2023-09-19T13:51:38;21.50;1.00
20839;DHT22;10580;51.092;6.828;2023-09-19T13:54:03;21.50;1.00
20839;DHT22;10580;51.092;6.828;2023-09-19T13:56:29;21.70;1.00
20839;DHT22;10580;51.092;6.828;2023-09-19T13:58:56;21.50;1.00
20839;DHT22;10580;51.092;6.828;2023-09-19T14:01:22;21.40;1.00
20839;DHT22;10580;51.092;6.828;2023-09-19T14:03:47;21.30;1.00
20839;DHT22;10580;51.092;6.828;2023-09-19T14:06:15;21.20;1.00
20839;DHT22;10580;51.092;6.828;2023-09-19T14:08:41;21.00;1.00
20839;DHT22;10580;51.092;6.828;2023-09-19T14:11:07;20.80;1.00
20839;DHT22;10580;51.092;6.828;2023-09-19T14:13:33;20.70;1.00
20839;DHT22;10580;51.092;6.828;2023-09-19T14:16:03;20.60;1.00
20839;DHT22;10580;51.092;6.828;2023-09-19T14:18:30;20.60;1.00
20839;DHT22;10580;51.092;6.828;2023-09-19T14:20:56;20.60;1.00
20839;DHT22;10580;51.092;6.828;2023-09-19T14:23:22;20.70;1.00
20839;DHT22;10580;51.092;6.828;2023-09-19T14:25:50;20.60;1.00
20839;DHT22;10580;51.092;6.828;2023-09-19T14:28:15;20.70;1.00
20839;DHT22;10580;51.092;6.828;2023-09-19T14:30:41;20.90;1.00
20839;DHT22;10580;51.092;6.828;2023-09-19T14:33:06;21.00;1.00
20839;DHT22;10580;51.092;6.828;2023-09-19T14:35:32;21.00;1.00
20839;DHT22;10580;51.092;6.828;2023-09-19T14:37:58;20.90;1.00
20839;DHT22;10580;51.092;6.828;2023-09-19T14:40:23;21.00;1.00
20839;DHT22;10580;51.092;6.828;2023-09-19T14:42:50;21.00;1.00
20839;DHT22;10580;51.092;6.828;2023-09-19T14:45:15;20.90;1.00
20839;DHT22;10580;51.092;6.828;2023-09-19T14:47:45;20.90;1.00
20839;DHT22;10580;51.092;6.828;2023-09-19T14:50:11;21.00;1.00
20839;DHT22;10580;51.092;6.828;2023-09-19T14:52:38;20.90;1.00
20839;DHT22;10580;51.092;6.828;2023-09-19T14:55:06;20.60;1.00
20839;DHT22;10580;51.092;6.828;2023-09-19T14:57:31;20.60;1.00
20839;DHT22;10580;51.092;6.828;2023-09-19T14:59:58;20.40;1.00
20839;DHT22;10580;51.092;6.828;2023-09-19T15:02:24;20.30;1.00
20839;DHT22;10580;51.092;6.828;2023-09-19T15:04:50;20.20;1.00
20839;DHT22;10580;51.092;6.828;2023-09-19T15:07:16;20.10;1.00
20839;DHT22;10580;51.092;6.828;2023-09-19T15:09:43;20.10;1.00
20839;DHT22;10580;51.092;6.828;2023-09-19T15:12:09;20.00;1.00
20839;DHT22;10580;51.092;6.828;2023-09-19T15:14:40;20.00;1.00
20839;DHT22;10580;51.092;6.828;2023-09-19T15:17:15;20.00;1.00
20839;DHT22;10580;51.092;6.828;2023-09-19T15:19:40;19.90;1.00
20839;DHT22;10580;51.092;6.828;2023-09-19T15:22:06;19.90;1.00
20839;DHT22;10580;51.092;6.828;2023-09-19T15:24:32;19.80;1.00
20839;DHT22;10580;51.092;6.828;2023-09-19T15:26:57;19.90;1.00
20839;DHT22;10580;51.092;6.828;2023-09-19T15:29:23;19.90;1.00
20839;DHT22;10580;51.092;6.828;2023-09-19T15:31:49;19.90;1.00
20839;DHT22;10580;51.092;6.828;2023-09-19T15:34:14;19.90;1.00
20839;DHT22;10580;51.092;6.828;2023-09-19T15:36:41;19.90;1.00
20839;DHT22;10580;51.092;6.828;2023-09-19T15:39:07;19.90;1.00
20839;DHT22;10580;51.092;6.828;2023-09-19T15:41:39;19.80;1.00
20839;DHT22;10580;51.092;6.828;2023-09-19T15:44:16;19.80;1.00
20839;DHT22;10580;51.092;6.828;2023-09-19T15:46:42;19.90;1.00
20839;DHT22;10580;51.092;6.828;2023-09-19T15:49:09;19.80;1.00
20839;DHT22;10580;51.092;6.828;2023-09-19T15:51:35;19.90;1.00
20839;DHT22;10580;51.092;6.828;2023-09-19T15:54:01;19.90;1.00
20839;DHT22;10580;51.092;6.828;2023-09-19T15:56:33;20.00;1.00
20839;DHT22;10580;51.092;6.828;2023-09-19T15:59:00;20.00;1.00
20839;DHT22;10580;51.092;6.828;2023-09-19T16:01:25;20.00;1.00
20839;DHT22;10580;51.092;6.828;2023-09-19T16:03:52;20.00;1.00
20839;DHT22;10580;51.092;6.828;2023-09-19T16:06:22;20.00;1.00
20839;DHT22;10580;51.092;6.828;2023-09-19T16:08:53;20.00;1.00
20839;DHT22;10580;51.092;6.828;2023-09-19T16:11:18;20.00;1.00
20839;DHT22;10580;51.092;6.828;2023-09-19T16:13:47;19.90;1.00
20839;DHT22;10580;51.092;6.828;2023-09-19T16:16:14;19.90;1.00
20839;DHT22;10580;51.092;6.828;2023-09-19T16:18:55;19.90;1.00
20839;DHT22;10580;51.092;6.828;2023-09-19T16:21:23;19.90;1.00
20839;DHT22;10580;51.092;6.828;2023-09-19T16:23:50;19.90;1.00
20839;DHT22;10580;51.092;6.828;2023-09-19T16:26:17;19.90;1.00
20839;DHT22;10580;51.092;6.828;2023-09-19T16:28:45;19.90;1.00
20839;DHT22;10580;51.092;6.828;2023-09-19T16:31:11;19.90;1.00
20839;DHT22;10580;51.092;6.828;2023-09-19T16:33:38;19.90;1.00
20839;DHT22;10580;51.092;6.828;2023-09-19T16:36:10;20.00;1.00
20839;DHT22;10580;51.092;6.828;2023-09-19T16:38:37;20.00;1.00
20839;DHT22;10580;51.092;6.828;2023-09-19T16:41:03;20.00;1.00
20839;DHT22;10580;51.092;6.828;2023-09-19T16:43:33;20.00;1.00
20839;DHT22;10580;51.092;6.828;2023-09-19T16:48:27;19.80;1.00
20839;DHT22;10580;51.092;6.828;2023-09-19T16:50:53;19.70;1.00
20839;DHT22;10580;51.092;6.828;2023-09-19T16:53:20;19.60;1.00
20839;DHT22;10580;51.092;6.828;2023-09-19T16:55:46;19.50;1.00
20839;DHT22;10580;51.092;6.828;2023-09-19T16:58:15;19.40;1.00
20839;DHT22;10580;51.092;6.828;2023-09-19T17:00:42;19.40;1.00
20839;DHT22;10580;51.092;6.828;2023-09-19T17:03:09;19.30;1.00
20839;DHT22;10580;51.092;6.828;2023-09-19T17:05:38;19.30;1.00
20839;DHT22;10580;51.092;6.828;2023-09-19T17:08:08;19.20;1.00
20839;DHT22;10580;51.092;6.828;2023-09-19T17:10:35;19.10;1.00
20839;DHT22;10580;51.092;6.828;2023-09-19T17:13:02;19.10;1.00
20839;DHT22;10580;51.092;6.828;2023-09-19T17:15:31;19.10;1.00
20839;DHT22;10580;51.092;6.828;2023-09-19T17:17:57;19.10;1.00
20839;DHT22;10580;51.092;6.828;2023-09-19T17:20:23;19.00;1.00
20839;DHT22;10580;51.092;6.828;2023-09-19T17:22:49;19.00;1.00
20839;DHT22;10580;51.092;6.828;2023-09-19T17:25:16;19.00;1.00
20839;DHT22;10580;51.092;6.828;2023-09-19T17:27:42;18.90;1.00
20839;DHT22;10580;51.092;6.828;2023-09-19T17:30:09;18.90;1.00
20839;DHT22;10580;51.092;6.828;2023-09-19T17:32:37;18.90;1.00
20839;DHT22;10580;51.092;6.828;2023-09-19T17:35:03;18.90;1.00
20839;DHT22;10580;51.092;6.828;2023-09-19T17:37:29;18.90;1.00
20839;DHT22;10580;51.092;6.828;2023-09-19T17:39:55;18.80;1.00
20839;DHT22;10580;51.092;6.828;2023-09-19T17:42:21;18.80;1.00
20839;DHT22;10580;51.092;6.828;2023-09-19T17:44:48;18.80;1.00
20839;DHT22;10580;51.092;6.828;2023-09-19T17:47:14;18.80;1.00
20839;DHT22;10580;51.092;6.828;2023-09-19T17:49:42;18.70;1.00
20839;DHT22;10580;51.092;6.828;2023-09-19T17:52:07;18.70;1.00
20839;DHT22;10580;51.092;6.828;2023-09-19T17:54:33;18.60;1.00
20839;DHT22;10580;51.092;6.828;2023-09-19T17:56:59;18.50;1.00
20839;DHT22;10580;51.092;6.828;2023-09-19T17:59:25;18.50;1.00
20839;DHT22;10580;51.092;6.828;2023-09-19T18:01:50;18.50;1.00
20839;DHT22;10580;51.092;6.828;2023-09-19T18:04:16;18.50;1.00
20839;DHT22;10580;51.092;6.828;2023-09-19T18:06:43;18.50;1.00
20839;DHT22;10580;51.092;6.828;2023-09-19T18:09:09;18.50;1.00
20839;DHT22;10580;51.092;6.828;2023-09-19T18:11:35;18.60;1.00
20839;DHT22;10580;51.092;6.828;2023-09-19T18:14:01;18.60;1.00
20839;DHT22;10580;51.092;6.828;2023-09-19T18:16:27;18.60;1.00
20839;DHT22;10580;51.092;6.828;2023-09-19T18:18:56;18.60;1.00
20839;DHT22;10580;51.092;6.828;2023-09-19T18:21:22;18.60;1.00
20839;DHT22;10580;51.092;6.828;2023-09-19T18:24:08;18.60;1.00
20839;DHT22;10580;51.092;6.828;2023-09-19T18:26:40;18.60;1.00